Time;durP1;ratioP1;P1;durP2;ratioP2;P2;SDS_P1;SDS_P2;PMS_P1;PMS_P2;Temp;Humidity;BMP_temperature;BMP_pressure;BME280_temperature;BME280_humidity;BME280_pressure;Samples;Min_cycle;Max_cycle;Signal;HPM_P1;HPM_P2
2021/11/30 00:00:12;;;;;;;13.20;5.30;;;;;3.50;100817.00;;;;10483612;28;20307;-78
2021/11/30 00:05:14;;;;;;;10.73;5.37;;;;;3.50;100812.00;;;;10505078;28;20197;-78
2021/11/30 00:15:18;;;;;;;7.80;4.70;;;;;3.60;100797.00;;;;10450262;28;20229;-78
2021/11/30 00:20:20;;;;;;;10.97;4.67;;;;;3.70;100786.00;;;;10463327;28;20757;-78
2021/11/30 00:25:23;;;;;;;14.17;5.13;;;;;3.70;100780.00;;;;10472337;28;20613;-78
2021/11/30 00:30:25;;;;;;;7.80;3.80;;;;;3.80;100763.00;;;;10516446;28;20199;-78
2021/11/30 00:35:28;;;;;;;10.37;4.67;;;;;3.80;100754.00;;;;10514676;28;20229;-78
2021/11/30 00:40:33;;;;;;;5.87;3.77;;;;;3.90;100747.00;;;;10468349;28;20197;-78
2021/11/30 00:45:46;;;;;;;10.83;3.00;;;;;4.00;100756.00;;;;10491090;28;20208;-78
2021/11/30 00:50:51;;;;;;;5.43;3.37;;;;;4.10;100763.00;;;;10504305;28;20616;-78
2021/11/30 00:55:53;;;;;;;5.53;3.00;;;;;4.00;100744.00;;;;10472012;28;20216;-78
2021/11/30 01:00:55;;;;;;;6.90;3.67;;;;;4.00;100751.00;;;;10471055;28;20254;-78
2021/11/30 01:05:58;;;;;;;6.03;3.00;;;;;4.00;100732.00;;;;10471653;28;20189;-78
2021/11/30 01:11:02;;;;;;;7.47;3.27;;;;;3.90;100728.00;;;;10476151;28;20201;-78
2021/11/30 01:16:04;;;;;;;6.43;3.00;;;;;3.80;100732.00;;;;10485466;28;20312;-79
2021/11/30 01:21:07;;;;;;;5.27;3.27;;;;;3.80;100722.00;;;;10482984;28;20280;-79
2021/11/30 01:26:09;;;;;;;6.93;3.40;;;;;3.70;100721.00;;;;10450752;28;20268;-79
2021/11/30 01:31:10;;;;;;;8.07;3.50;;;;;3.60;100705.00;;;;10490053;28;20790;-79
2021/11/30 01:36:13;;;;;;;7.50;3.80;;;;;3.60;100699.00;;;;10446307;28;20248;-81
2021/11/30 01:41:15;;;;;;;6.73;3.50;;;;;3.60;100688.00;;;;10504669;28;20193;-80
2021/11/30 01:51:21;;;;;;;8.40;4.10;;;;;3.60;100655.00;;;;10509794;28;20201;-81
2021/11/30 01:56:24;;;;;;;6.57;3.50;;;;;3.60;100653.00;;;;10474653;28;20204;-80
2021/11/30 02:01:27;;;;;;;9.03;4.07;;;;;3.60;100644.00;;;;10457297;28;20197;-81
2021/11/30 02:06:29;;;;;;;7.23;3.80;;;;;3.60;100650.00;;;;10471729;28;20201;-81
2021/11/30 02:11:31;;;;;;;9.13;4.60;;;;;3.60;100635.00;;;;10470482;28;20213;-80
2021/11/30 02:16:33;;;;;;;7.13;4.33;;;;;3.60;100633.00;;;;10483733;28;20552;-81
2021/11/30 02:21:39;;;;;;;5.50;3.90;;;;;3.60;100634.00;;;;10476303;28;20193;-81
2021/11/30 02:26:41;;;;;;;11.00;5.43;;;;;3.60;100638.00;;;;10481482;28;20212;-80
2021/11/30 02:31:47;;;;;;;8.97;4.83;;;;;3.70;100623.00;;;;10476634;28;20224;-81
2021/11/30 02:36:52;;;;;;;8.20;4.93;;;;;3.70;100611.00;;;;10482937;28;20561;-80
2021/11/30 02:41:56;;;;;;;11.60;6.07;;;;;3.80;100609.00;;;;10493534;28;20198;-80
2021/11/30 02:47:02;;;;;;;11.30;6.40;;;;;3.80;100607.00;;;;10455625;28;20710;-80
2021/11/30 02:52:10;;;;;;;13.00;6.97;;;;;3.90;100577.00;;;;10470224;28;20191;-80
2021/11/30 02:57:15;;;;;;;11.83;6.03;;;;;3.90;100557.00;;;;10483198;28;20228;-80
2021/11/30 03:02:18;;;;;;;11.97;7.40;;;;;4.00;100541.00;;;;10493506;28;20205;-80
2021/11/30 03:07:24;;;;;;;13.37;8.10;;;;;4.00;100535.00;;;;10490572;28;20200;-80
2021/11/30 03:12:26;;;;;;;11.73;6.87;;;;;4.10;100533.00;;;;10484821;28;20236;-80
2021/11/30 03:17:28;;;;;;;12.37;8.00;;;;;4.10;100524.00;;;;10482763;28;20214;-79
2021/11/30 03:22:30;;;;;;;14.73;8.20;;;;;4.20;100524.00;;;;10472505;28;20201;-79
2021/11/30 03:27:34;;;;;;;13.27;8.43;;;;;4.30;100523.00;;;;10467260;28;20197;-80
2021/11/30 03:37:56;;;;;;;14.93;9.73;;;;;4.40;100505.00;;;;10488242;28;20265;-80
2021/11/30 03:42:58;;;;;;;13.50;9.73;;;;;4.50;100505.00;;;;10500842;28;20204;-79
2021/11/30 03:48:00;;;;;;;15.60;10.93;;;;;4.50;100485.00;;;;10470799;28;20204;-79
2021/11/30 03:53:02;;;;;;;19.93;11.50;;;;;4.50;100485.00;;;;10475073;28;20215;-80
2021/11/30 03:58:04;;;;;;;16.63;10.70;;;;;4.50;100488.00;;;;10486425;28;20887;-80
2021/11/30 04:03:06;;;;;;;17.60;12.37;;;;;4.50;100483.00;;;;10485656;28;20212;-80
2021/11/30 04:08:08;;;;;;;17.77;12.70;;;;;4.50;100476.00;;;;10484842;28;20197;-80
2021/11/30 04:13:10;;;;;;;18.37;12.83;;;;;4.60;100466.00;;;;10491141;28;20196;-80
2021/11/30 04:18:12;;;;;;;19.07;12.87;;;;;4.70;100472.00;;;;10463759;28;20221;-81
2021/11/30 04:23:14;;;;;;;16.77;13.23;;;;;4.80;100472.00;;;;10484128;28;20201;-81
2021/11/30 04:28:16;;;;;;;19.50;13.77;;;;;4.80;100473.00;;;;10481440;28;20189;-83
2021/11/30 04:33:18;;;;;;;14.10;12.27;;;;;4.90;100466.00;;;;10448640;28;20263;-83
2021/11/30 04:38:21;;;;;;;26.27;16.27;;;;;4.90;100459.00;;;;10459048;28;20647;-83
2021/11/30 04:43:25;;;;;;;20.90;16.07;;;;;5.00;100455.00;;;;10486066;28;20195;-83
2021/11/30 04:48:27;;;;;;;21.33;16.50;;;;;5.00;100451.00;;;;10455127;28;20553;-83
2021/11/30 04:53:31;;;;;;;21.47;15.07;;;;;5.10;100452.00;;;;10431877;28;20231;-84
2021/11/30 04:58:33;;;;;;;21.70;14.93;;;;;5.10;100438.00;;;;10495955;28;20225;-83
2021/11/30 05:03:35;;;;;;;21.70;15.63;;;;;5.20;100447.00;;;;10490133;28;20609;-84
2021/11/30 05:08:37;;;;;;;21.53;14.77;;;;;5.30;100450.00;;;;10493267;28;20205;-82
2021/11/30 05:13:39;;;;;;;20.00;15.17;;;;;5.30;100443.00;;;;10506355;28;20238;-83
2021/11/30 05:18:42;;;;;;;20.63;15.37;;;;;5.40;100436.00;;;;10476243;28;20235;-83
2021/11/30 05:23:44;;;;;;;21.30;16.03;;;;;5.40;100428.00;;;;10472130;28;20264;-83
2021/11/30 05:28:47;;;;;;;23.03;16.70;;;;;5.50;100435.00;;;;10498915;28;20193;-83
2021/11/30 05:33:49;;;;;;;21.97;16.23;;;;;5.50;100432.00;;;;10485023;28;20221;-83
2021/11/30 05:38:52;;;;;;;19.63;15.67;;;;;5.60;100418.00;;;;10472113;28;20243;-84
2021/11/30 05:43:54;;;;;;;17.73;13.53;;;;;5.60;100436.00;;;;10503185;28;20193;-83
2021/11/30 05:48:56;;;;;;;18.87;13.93;;;;;5.60;100431.00;;;;10517835;28;20192;-83
2021/11/30 05:53:58;;;;;;;19.27;14.30;;;;;5.60;100446.00;;;;10511650;28;20583;-83
2021/11/30 05:59:00;;;;;;;22.63;14.53;;;;;5.70;100427.00;;;;10472516;28;20228;-83
2021/11/30 06:04:03;;;;;;;19.77;13.37;;;;;5.70;100421.00;;;;10484940;28;20896;-83
2021/11/30 06:09:09;;;;;;;22.17;14.50;;;;;5.80;100418.00;;;;10488613;28;20250;-82
2021/11/30 06:14:12;;;;;;;17.93;13.73;;;;;5.80;100419.00;;;;10474968;28;20197;-82
2021/11/30 06:19:15;;;;;;;23.37;14.80;;;;;5.80;100433.00;;;;10484845;28;20217;-82
2021/11/30 06:24:18;;;;;;;19.70;14.03;;;;;5.90;100432.00;;;;10466421;28;20568;-82
2021/11/30 06:29:20;;;;;;;20.97;14.23;;;;;6.00;100449.00;;;;10472566;28;20234;-82
2021/11/30 06:34:22;;;;;;;18.43;14.40;;;;;6.00;100443.00;;;;10504440;28;20225;-82
2021/11/30 06:39:24;;;;;;;17.77;12.13;;;;;6.10;100452.00;;;;10483931;28;20626;-82
2021/11/30 06:44:26;;;;;;;19.03;14.27;;;;;6.10;100455.00;;;;10477799;28;20193;-82
2021/11/30 06:49:28;;;;;;;20.17;14.13;;;;;6.20;100460.00;;;;10456458;28;20208;-82
2021/11/30 06:54:30;;;;;;;18.97;13.77;;;;;6.20;100453.00;;;;10468668;28;20622;-82
2021/11/30 06:59:32;;;;;;;18.80;15.13;;;;;6.20;100455.00;;;;10501229;28;20258;-82
2021/11/30 07:04:38;;;;;;;18.67;14.27;;;;;6.30;100460.00;;;;10493588;28;20824;-82
2021/11/30 07:15:00;;;;;;;16.30;11.83;;;;;6.40;100458.00;;;;10504568;28;20203;-81
2021/11/30 07:20:04;;;;;;;14.33;12.10;;;;;6.40;100469.00;;;;10493986;28;20224;-81
2021/11/30 07:25:06;;;;;;;16.43;12.43;;;;;6.50;100471.00;;;;10494033;28;20216;-81
2021/11/30 07:30:08;;;;;;;18.77;13.60;;;;;6.60;100468.00;;;;10492613;28;20200;-81
2021/11/30 07:35:11;;;;;;;14.33;12.07;;;;;6.60;100458.00;;;;10460950;28;20222;-81
2021/11/30 07:40:13;;;;;;;15.07;11.70;;;;;6.70;100470.00;;;;10506961;28;20217;-81
2021/11/30 07:45:16;;;;;;;15.53;11.33;;;;;6.80;100470.00;;;;10460993;28;20204;-81
2021/11/30 07:50:18;;;;;;;14.87;11.90;;;;;6.90;100455.00;;;;10491565;28;20209;-82
2021/11/30 07:55:20;;;;;;;13.73;10.30;;;;;7.00;100464.00;;;;10517428;27;20205;-82
2021/11/30 08:00:22;;;;;;;11.37;10.03;;;;;7.10;100466.00;;;;10502015;27;20311;-81
2021/11/30 08:05:25;;;;;;;10.70;8.53;;;;;7.20;100473.00;;;;10455468;28;20243;-82
2021/11/30 08:10:28;;;;;;;13.10;9.63;;;;;7.20;100468.00;;;;10475460;28;20259;-82
2021/11/30 08:15:31;;;;;;;12.27;9.17;;;;;7.30;100460.00;;;;10480230;28;20864;-82
2021/11/30 08:20:35;;;;;;;11.60;8.73;;;;;7.40;100468.00;;;;10488967;28;20221;-82
2021/11/30 08:25:38;;;;;;;11.90;10.00;;;;;7.50;100465.00;;;;10470577;28;20239;-82
2021/11/30 08:30:40;;;;;;;11.73;8.73;;;;;7.50;100476.00;;;;10491677;28;20196;-82
2021/11/30 08:35:42;;;;;;;11.73;9.47;;;;;7.60;100478.00;;;;10494572;28;20197;-82
2021/11/30 08:40:44;;;;;;;14.03;9.63;;;;;7.60;100482.00;;;;10467933;28;20595;-82
2021/11/30 08:45:47;;;;;;;12.43;9.80;;;;;7.70;100484.00;;;;10456658;28;20205;-82
2021/11/30 08:50:49;;;;;;;17.27;11.47;;;;;7.80;100480.00;;;;10479767;28;20565;-81
2021/11/30 08:55:52;;;;;;;16.77;11.23;;;;;7.80;100499.00;;;;10473562;28;20204;-82
2021/11/30 09:00:55;;;;;;;15.47;12.23;;;;;7.80;100495.00;;;;10471587;28;20193;-81
2021/11/30 09:05:58;;;;;;;17.53;12.83;;;;;7.90;100486.00;;;;10473083;28;20202;-82
2021/11/30 09:11:00;;;;;;;19.37;13.10;;;;;7.90;100493.00;;;;10500477;28;20205;-82
2021/11/30 09:16:02;;;;;;;22.53;14.77;;;;;7.90;100484.00;;;;10477732;28;20197;-82
2021/11/30 09:21:05;;;;;;;23.77;16.30;;;;;8.00;100483.00;;;;10486569;28;20852;-82
2021/11/30 09:26:07;;;;;;;22.27;15.90;;;;;8.10;100488.00;;;;10525900;27;20199;-82
2021/11/30 09:31:09;;;;;;;21.07;15.87;;;;;8.20;100479.00;;;;10510284;28;20307;-82
2021/11/30 09:36:15;;;;;;;21.50;15.27;;;;;8.20;100486.00;;;;10503427;28;20620;-83
2021/11/30 09:41:17;;;;;;;17.70;14.57;;;;;8.30;100483.00;;;;10444199;28;20205;-82
2021/11/30 09:46:25;;;;;;;20.73;14.00;;;;;8.40;100471.00;;;;10488116;28;20193;-83
2021/11/30 09:51:27;;;;;;;18.20;15.23;;;;;8.50;100468.00;;;;10496585;28;20345;-83
2021/11/30 09:56:29;;;;;;;16.77;12.03;;;;;8.60;100471.00;;;;10476727;28;20216;-82
2021/11/30 10:01:31;;;;;;;18.43;14.00;;;;;8.70;100451.00;;;;10494078;28;20192;-82
2021/11/30 10:06:35;;;;;;;16.57;14.07;;;;;8.70;100462.00;;;;10488598;28;20281;-82
2021/11/30 10:11:38;;;;;;;16.93;13.43;;;;;8.70;100479.00;;;;10480886;28;20288;-82
2021/11/30 10:17:08;;;;;;;17.77;12.60;;;;;8.70;100481.00;;;;10492352;28;20220;-82
2021/11/30 10:22:11;;;;;;;17.90;14.00;;;;;8.70;100485.00;;;;10450230;28;20187;-82
2021/11/30 10:27:13;;;;;;;15.63;11.50;;;;;8.70;100483.00;;;;10473414;28;20638;-81
2021/11/30 10:32:15;;;;;;;23.30;15.13;;;;;8.70;100497.00;;;;10495125;28;20614;-81
2021/11/30 10:37:17;;;;;;;21.70;13.70;;;;;8.80;100489.00;;;;10457755;28;20217;-81
2021/11/30 10:42:25;;;;;;;15.57;12.60;;;;;8.90;100499.00;;;;10471909;28;20208;-81
2021/11/30 10:47:31;;;;;;;16.53;13.77;;;;;8.90;100488.00;;;;10488004;28;20711;-81
2021/11/30 10:52:33;;;;;;;20.00;14.03;;;;;8.90;100487.00;;;;10495875;27;20840;-81
2021/11/30 10:57:37;;;;;;;21.13;13.77;;;;;8.90;100488.00;;;;10452721;28;20307;-81
2021/11/30 11:03:07;;;;;;;25.00;14.30;;;;;9.00;100500.00;;;;10479239;28;20185;-81
2021/11/30 11:08:14;;;;;;;19.43;12.10;;;;;9.20;100500.00;;;;10490370;28;20291;-81
2021/11/30 11:13:26;;;;;;;18.07;13.80;;;;;9.20;100499.00;;;;10492642;28;20541;-81
2021/11/30 11:18:36;;;;;;;18.47;11.90;;;;;9.10;100491.00;;;;10464578;28;20762;-81
2021/11/30 11:23:42;;;;;;;19.80;13.77;;;;;9.20;100494.00;;;;10452277;28;20572;-81
2021/11/30 11:28:44;;;;;;;20.30;13.30;;;;;9.10;100482.00;;;;10457573;28;20584;-81
2021/11/30 11:33:47;;;;;;;18.73;14.20;;;;;9.10;100482.00;;;;10473588;28;20228;-80
2021/11/30 11:38:49;;;;;;;19.17;12.33;;;;;9.20;100488.00;;;;10523306;28;20216;-81
2021/11/30 11:43:52;;;;;;;14.73;11.93;;;;;9.20;100498.00;;;;10483137;28;20209;-81
2021/11/30 11:48:57;;;;;;;17.73;13.43;;;;;9.20;100482.00;;;;10475206;28;20197;-81
2021/11/30 11:53:59;;;;;;;16.67;12.90;;;;;9.30;100489.00;;;;10478547;28;20197;-81
2021/11/30 11:59:18;;;;;;;17.33;13.43;;;;;9.30;100486.00;;;;10471996;28;20217;-81
2021/11/30 12:04:20;;;;;;;15.07;13.17;;;;;9.40;100478.00;;;;10471769;28;20204;-81
2021/11/30 12:09:29;;;;;;;15.40;12.03;;;;;9.30;100470.00;;;;10457980;28;20742;-83
2021/11/30 12:14:35;;;;;;;17.20;12.70;;;;;9.30;100462.00;;;;10495672;28;20201;-83
2021/11/30 12:20:05;;;;;;;18.50;13.87;;;;;9.30;100448.00;;;;10473937;28;20217;-83
2021/11/30 12:25:25;;;;;;;17.07;12.97;;;;;9.30;100466.00;;;;10483975;28;20197;-84
2021/11/30 12:30:49;;;;;;;16.10;12.70;;;;;9.30;100463.00;;;;10494301;28;20206;-84
2021/11/30 12:36:06;;;;;;;19.23;11.90;;;;;9.40;100447.00;;;;10473160;28;20200;-83
2021/11/30 12:41:25;;;;;;;16.47;11.30;;;;;9.50;100443.00;;;;10487353;28;20225;-84
2021/11/30 12:46:46;;;;;;;17.60;11.37;;;;;9.50;100444.00;;;;10499457;28;20200;-83
2021/11/30 12:51:49;;;;;;;15.67;10.17;;;;;9.50;100435.00;;;;10481851;27;20193;-83
2021/11/30 12:56:54;;;;;;;15.43;10.50;;;;;9.40;100439.00;;;;10475979;28;20209;-83
2021/11/30 13:02:41;;;;;;;11.57;9.63;;;;;9.30;100430.00;;;;10472946;28;20193;-83
2021/11/30 13:07:47;;;;;;;12.87;9.97;;;;;9.30;100436.00;;;;10441995;28;20439;-82
2021/11/30 13:12:51;;;;;;;14.37;10.57;;;;;9.30;100435.00;;;;10450152;28;20254;-82
2021/11/30 13:17:57;;;;;;;13.03;8.33;;;;;9.30;100429.00;;;;10486423;28;20224;-82
2021/11/30 13:23:00;;;;;;;14.17;11.43;;;;;9.20;100433.00;;;;10489129;28;20193;-83
2021/11/30 13:28:14;;;;;;;12.53;9.83;;;;;9.30;100429.00;;;;10476027;28;20660;-82
2021/11/30 13:33:23;;;;;;;17.53;11.77;;;;;9.30;100441.00;;;;10479324;28;20696;-81
2021/11/30 13:38:33;;;;;;;15.30;11.47;;;;;9.30;100453.00;;;;10454990;28;20307;-81
2021/11/30 13:43:45;;;;;;;16.50;11.70;;;;;9.30;100467.00;;;;10523890;27;20193;-81
2021/11/30 13:48:53;;;;;;;16.60;11.57;;;;;9.30;100457.00;;;;10486949;28;20193;-81
2021/11/30 13:54:00;;;;;;;11.53;10.30;;;;;9.40;100463.00;;;;10487664;28;20212;-82
2021/11/30 13:59:11;;;;;;;16.90;11.17;;;;;9.40;100467.00;;;;10506949;28;20314;-82
2021/11/30 14:04:50;;;;;;;12.10;10.67;;;;;9.30;100455.00;;;;10486432;28;20188;-84
2021/11/30 14:09:53;;;;;;;13.10;11.13;;;;;9.30;100454.00;;;;10479757;28;20255;-84
2021/11/30 14:14:56;;;;;;;18.97;11.53;;;;;9.20;100451.00;;;;10486324;28;20197;-83
2021/11/30 14:20:03;;;;;;;14.77;11.30;;;;;9.20;100449.00;;;;10480376;28;20311;-83
2021/11/30 14:25:23;;;;;;;14.03;11.33;;;;;9.20;100448.00;;;;10497003;28;20588;-83
2021/11/30 14:30:37;;;;;;;12.90;11.20;;;;;9.20;100456.00;;;;10479615;28;20200;-84
2021/11/30 14:35:48;;;;;;;15.47;11.50;;;;;9.20;100467.00;;;;10496321;28;20682;-84
2021/11/30 14:40:52;;;;;;;12.87;9.87;;;;;9.20;100454.00;;;;10512475;28;20228;-83
2021/11/30 14:45:53;;;;;;;12.77;9.50;;;;;9.20;100465.00;;;;10470610;28;20696;-81
2021/11/30 14:50:56;;;;;;;11.63;10.43;;;;;9.10;100467.00;;;;10492406;28;20288;-82
2021/11/30 14:56:41;;;;;;;14.70;9.60;;;;;9.10;100470.00;;;;10523232;27;20200;-82
2021/11/30 15:01:53;;;;;;;15.97;9.80;;;;;9.10;100473.00;;;;10482086;28;20225;-81
2021/11/30 15:07:10;;;;;;;14.07;9.10;;;;;9.10;100465.00;;;;10487199;28;20205;-82
2021/11/30 15:12:26;;;;;;;12.17;9.03;;;;;9.10;100468.00;;;;10485525;28;20283;-82
2021/11/30 15:17:28;;;;;;;14.33;9.40;;;;;9.10;100468.00;;;;10459017;28;20209;-82
2021/11/30 15:22:30;;;;;;;12.90;8.90;;;;;9.10;100474.00;;;;10455709;28;20205;-81
2021/11/30 15:27:36;;;;;;;10.47;8.20;;;;;9.10;100467.00;;;;10484406;28;20208;-81
2021/11/30 15:32:39;;;;;;;13.57;8.43;;;;;9.10;100457.00;;;;10472756;28;20213;-81
2021/11/30 15:37:41;;;;;;;13.47;7.87;;;;;9.10;100458.00;;;;10483008;28;20228;-81
2021/11/30 15:42:44;;;;;;;9.37;6.47;;;;;9.00;100453.00;;;;10462015;28;20198;-81
2021/11/30 15:47:46;;;;;;;11.20;7.40;;;;;9.00;100453.00;;;;10498221;28;20245;-81
2021/11/30 15:52:47;;;;;;;12.93;8.20;;;;;9.00;100448.00;;;;10508196;27;20196;-81
2021/11/30 15:57:49;;;;;;;16.30;8.30;;;;;9.00;100457.00;;;;10492059;28;20236;-81
2021/11/30 16:02:52;;;;;;;12.70;8.07;;;;;9.00;100448.00;;;;10469593;28;20287;-81
2021/11/30 16:07:54;;;;;;;13.07;7.23;;;;;9.00;100451.00;;;;10485495;28;20236;-81
2021/11/30 16:12:56;;;;;;;16.00;7.00;;;;;9.10;100451.00;;;;10477789;28;20744;-82
2021/11/30 16:17:58;;;;;;;11.80;6.97;;;;;9.10;100443.00;;;;10504136;27;20217;-82
2021/11/30 16:23:00;;;;;;;15.80;7.37;;;;;9.10;100436.00;;;;10466403;28;20196;-81
2021/11/30 16:28:03;;;;;;;10.33;6.50;;;;;9.10;100440.00;;;;10491761;28;20668;-82
2021/11/30 16:33:07;;;;;;;11.93;6.97;;;;;9.10;100441.00;;;;10539523;27;20223;-82
2021/11/30 16:38:09;;;;;;;14.07;7.37;;;;;9.10;100429.00;;;;10502058;28;20224;-82
2021/11/30 16:43:12;;;;;;;10.03;6.87;;;;;9.10;100428.00;;;;10488042;28;20200;-82
2021/11/30 16:48:14;;;;;;;12.50;6.60;;;;;9.10;100426.00;;;;10467504;28;20675;-82
2021/11/30 16:53:16;;;;;;;12.50;6.93;;;;;9.10;100414.00;;;;10527763;28;20863;-82
2021/11/30 16:58:18;;;;;;;14.00;8.23;;;;;9.10;100412.00;;;;10508179;28;20274;-82
2021/11/30 17:03:20;;;;;;;11.57;7.73;;;;;9.10;100404.00;;;;10486928;28;20216;-82
2021/11/30 17:08:22;;;;;;;14.00;8.90;;;;;9.00;100392.00;;;;10498604;28;20206;-82
2021/11/30 17:13:24;;;;;;;17.80;9.13;;;;;9.00;100405.00;;;;10479559;28;20276;-81
2021/11/30 17:18:27;;;;;;;19.40;10.37;;;;;9.10;100401.00;;;;10486135;28;20251;-82
2021/11/30 17:23:32;;;;;;;16.90;9.90;;;;;9.10;100402.00;;;;10463905;28;20208;-82
2021/11/30 17:28:35;;;;;;;20.70;10.40;;;;;9.10;100393.00;;;;10470774;28;20190;-81
2021/11/30 17:33:38;;;;;;;17.33;10.20;;;;;9.10;100386.00;;;;10490666;28;20216;-81
2021/11/30 17:38:41;;;;;;;19.37;10.93;;;;;9.10;100382.00;;;;10489088;28;20226;-81
2021/11/30 17:43:43;;;;;;;16.90;10.50;;;;;9.20;100379.00;;;;10527448;28;20215;-81
2021/11/30 17:48:46;;;;;;;15.37;10.17;;;;;9.20;100368.00;;;;10507598;28;20287;-81
2021/11/30 17:53:48;;;;;;;20.70;10.63;;;;;9.20;100361.00;;;;10472674;28;20197;-81
2021/11/30 17:58:49;;;;;;;20.67;11.87;;;;;9.20;100353.00;;;;10536202;28;20227;-81
2021/11/30 18:03:55;;;;;;;19.40;12.10;;;;;9.20;100352.00;;;;10490088;28;20304;-80
2021/11/30 18:08:57;;;;;;;23.53;12.87;;;;;9.30;100348.00;;;;10486870;28;20600;-80
2021/11/30 18:14:00;;;;;;;25.97;14.33;;;;;9.30;100347.00;;;;10459537;28;20206;-80
2021/11/30 18:19:02;;;;;;;24.37;13.93;;;;;9.30;100348.00;;;;10459305;28;20224;-81
2021/11/30 18:24:05;;;;;;;21.17;13.67;;;;;9.40;100338.00;;;;10443891;28;20266;-81
2021/11/30 18:29:07;;;;;;;23.10;13.20;;;;;9.40;100335.00;;;;10494130;28;20188;-81
2021/11/30 18:34:09;;;;;;;20.30;12.70;;;;;9.40;100331.00;;;;10518061;28;20708;-80
2021/11/30 18:39:11;;;;;;;28.67;14.77;;;;;9.50;100318.00;;;;10521761;28;20225;-80
2021/11/30 18:44:13;;;;;;;23.40;15.90;;;;;9.50;100311.00;;;;10491771;28;20212;-80
2021/11/30 18:49:16;;;;;;;33.27;15.00;;;;;9.50;100313.00;;;;10501039;28;20204;-82
2021/11/30 18:54:18;;;;;;;24.97;13.30;;;;;9.50;100307.00;;;;10492399;28;20230;-82
2021/11/30 18:59:20;;;;;;;27.07;14.90;;;;;9.50;100295.00;;;;10448515;28;20225;-83
2021/11/30 19:04:23;;;;;;;22.93;15.13;;;;;9.50;100305.00;;;;10460086;28;20280;-82
2021/11/30 19:09:26;;;;;;;28.77;14.67;;;;;9.50;100296.00;;;;10485689;28;20200;-82
2021/11/30 19:14:28;;;;;;;25.50;14.33;;;;;9.50;100290.00;;;;10507211;28;20529;-82
2021/11/30 19:19:32;;;;;;;25.47;14.00;;;;;9.60;100281.00;;;;10519808;28;20270;-81
2021/11/30 19:24:34;;;;;;;23.77;14.10;;;;;9.60;100276.00;;;;10466741;28;20201;-81
2021/11/30 19:29:36;;;;;;;27.20;17.23;;;;;9.60;100270.00;;;;10492494;28;20212;-81
2021/11/30 19:34:40;;;;;;;27.77;16.73;;;;;9.60;100255.00;;;;10467954;28;20223;-81
2021/11/30 19:39:43;;;;;;;25.17;15.63;;;;;9.60;100255.00;;;;10469122;28;20222;-82
2021/11/30 19:44:45;;;;;;;25.87;14.80;;;;;9.70;100247.00;;;;10432733;28;20197;-81
2021/11/30 19:49:47;;;;;;;22.63;13.37;;;;;9.70;100251.00;;;;10466400;28;20197;-81
2021/11/30 19:54:49;;;;;;;22.00;12.83;;;;;9.70;100258.00;;;;10465438;28;20197;-81
2021/11/30 19:59:53;;;;;;;18.13;11.23;;;;;9.80;100251.00;;;;10474229;27;20227;-81
2021/11/30 20:10:19;;;;;;;17.37;12.40;;;;;9.80;100251.00;;;;10506017;28;20254;-81
2021/11/30 20:15:32;;;;;;;15.07;12.67;;;;;9.80;100240.00;;;;10489925;28;20193;-81
2021/11/30 20:20:38;;;;;;;19.57;11.73;;;;;9.80;100229.00;;;;10489218;28;20240;-81
2021/11/30 20:25:40;;;;;;;15.07;9.63;;;;;9.80;100235.00;;;;10481987;28;20196;-82
2021/11/30 20:30:43;;;;;;;10.53;9.20;;;;;9.80;100224.00;;;;10490408;28;20231;-83
2021/11/30 20:40:48;;;;;;;10.47;9.37;;;;;9.70;100209.00;;;;10502075;28;20217;-81
2021/11/30 20:45:52;;;;;;;11.40;8.33;;;;;9.80;100212.00;;;;10503625;28;20201;-81
2021/11/30 20:50:54;;;;;;;10.90;8.33;;;;;9.80;100202.00;;;;10520162;28;20556;-81
2021/11/30 20:55:56;;;;;;;11.67;7.43;;;;;9.80;100192.00;;;;10506432;28;20266;-81
2021/11/30 21:00:58;;;;;;;7.17;5.97;;;;;9.90;100189.00;;;;10505732;28;20209;-81
2021/11/30 21:06:01;;;;;;;7.57;4.40;;;;;9.90;100178.00;;;;10486905;28;20201;-81
2021/11/30 21:11:05;;;;;;;8.53;4.90;;;;;9.90;100181.00;;;;10484432;28;20213;-82
2021/11/30 21:16:29;;;;;;;5.63;3.73;;;;;9.90;100170.00;;;;10457780;28;20225;-82
2021/11/30 21:21:32;;;;;;;6.77;4.87;;;;;9.90;100153.00;;;;10446918;28;20225;-82
2021/11/30 21:26:34;;;;;;;5.93;4.97;;;;;9.80;100146.00;;;;10461836;28;20228;-82
2021/11/30 21:31:40;;;;;;;6.07;5.23;;;;;9.90;100133.00;;;;10462678;28;20745;-82
2021/11/30 21:36:42;;;;;;;5.60;5.00;;;;;9.80;100126.00;;;;10475906;28;20603;-82
2021/11/30 21:41:44;;;;;;;6.47;5.60;;;;;9.80;100117.00;;;;10453567;28;21014;-81
2021/11/30 21:46:46;;;;;;;5.37;4.10;;;;;9.80;100109.00;;;;10454372;28;20197;-82
2021/11/30 21:51:48;;;;;;;4.97;3.70;;;;;9.80;100102.00;;;;10465977;28;20201;-79
2021/11/30 21:56:50;;;;;;;3.47;2.83;;;;;9.70;100092.00;;;;10440093;28;20561;-82
2021/11/30 22:01:52;;;;;;;3.37;2.77;;;;;9.70;100074.00;;;;10502288;28;20217;-82
2021/11/30 22:06:54;;;;;;;3.27;2.97;;;;;9.70;100069.00;;;;10481642;28;20207;-82
2021/11/30 22:11:57;;;;;;;2.20;2.00;;;;;9.70;100051.00;;;;10515087;28;20205;-82
2021/11/30 22:16:59;;;;;;;2.40;2.20;;;;;9.70;100045.00;;;;10476801;28;20547;-82
2021/11/30 22:22:01;;;;;;;2.33;2.13;;;;;9.70;100027.00;;;;10490092;28;20240;-82
2021/11/30 22:27:03;;;;;;;2.60;2.40;;;;;9.70;100020.00;;;;10462551;28;20247;-83
2021/11/30 22:32:06;;;;;;;2.40;2.20;;;;;9.70;100012.00;;;;10501005;28;20565;-82
2021/11/30 22:37:08;;;;;;;2.40;2.20;;;;;9.60;99996.00;;;;10493353;28;20204;-82
2021/11/30 22:42:09;;;;;;;2.50;2.30;;;;;9.60;99994.00;;;;10491903;28;20274;-81
2021/11/30 22:47:12;;;;;;;4.10;3.20;;;;;9.60;99979.00;;;;10495075;28;20251;-81
2021/11/30 22:52:15;;;;;;;3.37;3.07;;;;;9.70;99974.00;;;;10487145;28;20207;-80
2021/11/30 22:57:18;;;;;;;3.50;3.20;;;;;9.70;99963.00;;;;10469617;28;20208;-80
2021/11/30 23:02:20;;;;;;;3.50;3.17;;;;;9.70;99958.00;;;;10478704;28;20312;-80
2021/11/30 23:07:22;;;;;;;2.90;2.07;;;;;9.60;99949.00;;;;10478151;28;20209;-80
2021/11/30 23:12:24;;;;;;;4.43;3.00;;;;;9.70;99955.00;;;;10459306;28;20224;-80
2021/11/30 23:17:27;;;;;;;4.43;2.97;;;;;9.70;99959.00;;;;10490412;28;20280;-80
2021/11/30 23:22:29;;;;;;;4.80;3.10;;;;;9.60;99945.00;;;;10475363;28;20223;-80
2021/11/30 23:27:41;;;;;;;4.67;3.33;;;;;9.60;99944.00;;;;10474174;27;20195;-79
2021/11/30 23:32:43;;;;;;;6.27;4.33;;;;;9.60;99939.00;;;;10492079;28;20232;-80
2021/11/30 23:37:47;;;;;;;6.47;5.50;;;;;9.60;99923.00;;;;10470481;27;20201;-80
2021/11/30 23:42:49;;;;;;;5.57;5.07;;;;;9.50;99914.00;;;;10456636;28;20209;-80
2021/11/30 23:47:51;;;;;;;5.93;5.23;;;;;9.50;99900.00;;;;10491451;27;20204;-80
2021/11/30 23:52:53;;;;;;;7.40;5.93;;;;;9.50;99872.00;;;;10467586;28;20198;-80
2021/11/30 23:57:55;;;;;;;7.50;6.70;;;;;9.50;99867.00;;;;10490372;28;20258;-79
